sensor_id;sensor_type;location;lat;lon;timestamp;pressure;altitude;pressure_sealevel;temperature;humidity
10079;BME280;5078;42.544;22.966;2023-03-03T00:01:07;93881.66;;;4.20;100.00
10079;BME280;5078;42.544;22.966;2023-03-03T00:03:34;93851.94;;;4.29;100.00
10079;BME280;5078;42.544;22.966;2023-03-03T00:06:03;93875.44;;;4.30;100.00
10079;BME280;5078;42.544;22.966;2023-03-03T00:08:30;93877.78;;;4.43;100.00
10079;BME280;5078;42.544;22.966;2023-03-03T00:10:58;93835.09;;;4.31;100.00
10079;BME280;5078;42.544;22.966;2023-03-03T00:13:28;93873.50;;;4.42;100.00
10079;BME280;5078;42.544;22.966;2023-03-03T00:16:10;93868.09;;;4.53;100.00
10079;BME280;5078;42.544;22.966;2023-03-03T00:18:40;93865.47;;;4.53;100.00
10079;BME280;5078;42.544;22.966;2023-03-03T00:21:27;93866.72;;;4.49;100.00
10079;BME280;5078;42.544;22.966;2023-03-03T00:24:00;93862.97;;;4.62;100.00
10079;BME280;5078;42.544;22.966;2023-03-03T00:26:33;93853.03;;;4.36;100.00
10079;BME280;5078;42.544;22.966;2023-03-03T00:29:01;93864.94;;;4.30;100.00
10079;BME280;5078;42.544;22.966;2023-03-03T00:31:30;93858.44;;;4.35;100.00
10079;BME280;5078;42.544;22.966;2023-03-03T00:34:03;93855.25;;;4.31;100.00
10079;BME280;5078;42.544;22.966;2023-03-03T00:36:42;93852.91;;;4.18;100.00
10079;BME280;5078;42.544;22.966;2023-03-03T00:39:18;93844.75;;;4.11;100.00
10079;BME280;5078;42.544;22.966;2023-03-03T00:41:47;93839.63;;;4.00;100.00
10079;BME280;5078;42.544;22.966;2023-03-03T00:44:38;93844.47;;;4.05;100.00
10079;BME280;5078;42.544;22.966;2023-03-03T00:47:25;93844.75;;;4.21;100.00
10079;BME280;5078;42.544;22.966;2023-03-03T00:49:52;93841.28;;;4.01;100.00
10079;BME280;5078;42.544;22.966;2023-03-03T00:52:21;93834.00;;;4.15;100.00
10079;BME280;5078;42.544;22.966;2023-03-03T00:54:50;93833.31;;;4.13;100.00
10079;BME280;5078;42.544;22.966;2023-03-03T00:57:16;93830.66;;;4.03;100.00
10079;BME280;5078;42.544;22.966;2023-03-03T00:59:43;93835.63;;;3.96;100.00
10079;BME280;5078;42.544;22.966;2023-03-03T01:02:10;93830.66;;;4.03;100.00
10079;BME280;5078;42.544;22.966;2023-03-03T01:04:37;93819.88;;;3.96;100.00
10079;BME280;5078;42.544;22.966;2023-03-03T01:07:04;93820.72;;;4.26;100.00
10079;BME280;5078;42.544;22.966;2023-03-03T01:09:32;93811.63;;;4.20;100.00
10079;BME280;5078;42.544;22.966;2023-03-03T01:11:59;93824.31;;;4.05;100.00
10079;BME280;5078;42.544;22.966;2023-03-03T01:14:26;93823.63;;;4.03;100.00
10079;BME280;5078;42.544;22.966;2023-03-03T01:16:53;93816.72;;;3.83;100.00
10079;BME280;5078;42.544;22.966;2023-03-03T01:19:19;93822.81;;;4.13;100.00
10079;BME280;5078;42.544;22.966;2023-03-03T01:21:46;93821.00;;;4.13;100.00
10079;BME280;5078;42.544;22.966;2023-03-03T01:24:13;93819.19;;;4.04;100.00
10079;BME280;5078;42.544;22.966;2023-03-03T01:26:41;93819.38;;;4.12;100.00
10079;BME280;5078;42.544;22.966;2023-03-03T01:29:08;93819.59;;;3.99;100.00
10079;BME280;5078;42.544;22.966;2023-03-03T01:31:34;93815.34;;;4.08;100.00
10079;BME280;5078;42.544;22.966;2023-03-03T01:34:01;93810.94;;;4.28;100.00
10079;BME280;5078;42.544;22.966;2023-03-03T01:36:28;93800.16;;;4.21;100.00
10079;BME280;5078;42.544;22.966;2023-03-03T01:38:55;93812.72;;;4.08;100.00
10079;BME280;5078;42.544;22.966;2023-03-03T01:41:22;93802.50;;;4.05;100.00
10079;BME280;5078;42.544;22.966;2023-03-03T01:43:50;93806.66;;;4.17;100.00
10079;BME280;5078;42.544;22.966;2023-03-03T01:46:45;93813.69;;;4.07;100.00
10079;BME280;5078;42.544;22.966;2023-03-03T01:49:35;93797.94;;;3.97;100.00
10079;BME280;5078;42.544;22.966;2023-03-03T01:52:10;93800.16;;;4.21;100.00
10079;BME280;5078;42.544;22.966;2023-03-03T01:54:41;93808.56;;;3.96;100.00
10079;BME280;5078;42.544;22.966;2023-03-03T01:57:13;93799.84;;;3.76;100.00
10079;BME280;5078;42.544;22.966;2023-03-03T01:59:44;93797.78;;;3.79;100.00
10079;BME280;5078;42.544;22.966;2023-03-03T02:02:13;93794.19;;;3.71;100.00
10079;BME280;5078;42.544;22.966;2023-03-03T02:04:39;93802.50;;;3.85;100.00
10079;BME280;5078;42.544;22.966;2023-03-03T02:07:08;93794.88;;;3.63;100.00
10079;BME280;5078;42.544;22.966;2023-03-03T02:09:42;93793.91;;;3.74;100.00
10079;BME280;5078;42.544;22.966;2023-03-03T02:12:13;93800.66;;;3.66;100.00
10079;BME280;5078;42.544;22.966;2023-03-03T02:14:44;93803.03;;;3.70;100.00
10079;BME280;5078;42.544;22.966;2023-03-03T02:17:11;93795.69;;;3.63;100.00
10079;BME280;5078;42.544;22.966;2023-03-03T02:19:43;93793.59;;;3.38;100.00
10079;BME280;5078;42.544;22.966;2023-03-03T02:22:21;93748.28;;;3.16;100.00
10079;BME280;5078;42.544;22.966;2023-03-03T02:24:50;93794.13;;;3.41;100.00
10079;BME280;5078;42.544;22.966;2023-03-03T02:27:20;93792.03;;;3.26;100.00
10079;BME280;5078;42.544;22.966;2023-03-03T02:29:46;93798.25;;;3.24;100.00
10079;BME280;5078;42.544;22.966;2023-03-03T02:32:13;93790.38;;;3.24;100.00
10079;BME280;5078;42.544;22.966;2023-03-03T02:34:45;93789.53;;;3.24;100.00
10079;BME280;5078;42.544;22.966;2023-03-03T02:37:13;93788.59;;;3.25;100.00
10079;BME280;5078;42.544;22.966;2023-03-03T02:39:40;93793.59;;;3.38;100.00
10079;BME280;5078;42.544;22.966;2023-03-03T02:42:10;93789.81;;;3.21;100.00
10079;BME280;5078;42.544;22.966;2023-03-03T02:44:40;93785.97;;;3.25;100.00
10079;BME280;5078;42.544;22.966;2023-03-03T02:47:06;93791.63;;;3.30;100.00
10079;BME280;5078;42.544;22.966;2023-03-03T02:49:34;93791.91;;;3.27;100.00
10079;BME280;5078;42.544;22.966;2023-03-03T02:52:04;93791.63;;;3.30;100.00
10079;BME280;5078;42.544;22.966;2023-03-03T02:54:31;93784.75;;;3.39;100.00
10079;BME280;5078;42.544;22.966;2023-03-03T02:56:59;93797.69;;;3.31;100.00
10079;BME280;5078;42.544;22.966;2023-03-03T02:59:26;93792.59;;;3.29;100.00
10079;BME280;5078;42.544;22.966;2023-03-03T03:01:54;93797.81;;;3.29;100.00
10079;BME280;5078;42.544;22.966;2023-03-03T03:04:23;93790.94;;;3.28;100.00
10079;BME280;5078;42.544;22.966;2023-03-03T03:06:50;93792.47;;;3.31;100.00
10079;BME280;5078;42.544;22.966;2023-03-03T03:09:19;93791.13;;;3.46;100.00
10079;BME280;5078;42.544;22.966;2023-03-03T03:11:46;93790.25;;;3.36;100.00
10079;BME280;5078;42.544;22.966;2023-03-03T03:14:13;93802.38;;;3.27;100.00
10079;BME280;5078;42.544;22.966;2023-03-03T03:16:40;93785.19;;;3.03;100.00
10079;BME280;5078;42.544;22.966;2023-03-03T03:19:09;93796.44;;;3.25;100.00
10079;BME280;5078;42.544;22.966;2023-03-03T03:21:36;93791.22;;;3.25;100.00
10079;BME280;5078;42.544;22.966;2023-03-03T03:24:03;93788.88;;;3.32;100.00
10079;BME280;5078;42.544;22.966;2023-03-03T03:26:30;93781.69;;;3.34;100.00
10079;BME280;5078;42.544;22.966;2023-03-03T03:28:56;93781.16;;;3.30;100.00
10079;BME280;5078;42.544;22.966;2023-03-03T03:31:24;93766.59;;;3.47;100.00
10079;BME280;5078;42.544;22.966;2023-03-03T03:33:51;93783.97;;;3.58;100.00
10079;BME280;5078;42.544;22.966;2023-03-03T03:36:20;93780.91;;;3.43;100.00
10079;BME280;5078;42.544;22.966;2023-03-03T03:38:46;93783.94;;;3.48;100.00
10079;BME280;5078;42.544;22.966;2023-03-03T03:41:13;93778.59;;;3.50;100.00
10079;BME280;5078;42.544;22.966;2023-03-03T03:43:40;93771.56;;;3.60;100.00
10079;BME280;5078;42.544;22.966;2023-03-03T03:46:07;93779.13;;;3.53;100.00
10079;BME280;5078;42.544;22.966;2023-03-03T03:48:33;93776.56;;;3.82;100.00
10079;BME280;5078;42.544;22.966;2023-03-03T03:51:00;93774.63;;;3.75;100.00
10079;BME280;5078;42.544;22.966;2023-03-03T03:53:28;93774.88;;;3.72;100.00
10079;BME280;5078;42.544;22.966;2023-03-03T03:55:55;93775.81;;;3.61;100.00
10079;BME280;5078;42.544;22.966;2023-03-03T03:58:22;93784.00;;;3.67;100.00
10079;BME280;5078;42.544;22.966;2023-03-03T04:00:49;93772.91;;;3.54;100.00
10079;BME280;5078;42.544;22.966;2023-03-03T04:03:16;93775.00;;;3.51;100.00
10079;BME280;5078;42.544;22.966;2023-03-03T04:05:43;93774.88;;;3.52;100.00
10079;BME280;5078;42.544;22.966;2023-03-03T04:08:09;93781.78;;;3.73;100.00
10079;BME280;5078;42.544;22.966;2023-03-03T04:10:38;93768.09;;;3.69;100.00
10079;BME280;5078;42.544;22.966;2023-03-03T04:13:05;93775.28;;;3.57;100.00
10079;BME280;5078;42.544;22.966;2023-03-03T04:15:32;93779.69;;;3.47;100.00
10079;BME280;5078;42.544;22.966;2023-03-03T04:17:58;93776.22;;;3.46;100.00
10079;BME280;5078;42.544;22.966;2023-03-03T04:20:25;93773.50;;;3.58;100.00
10079;BME280;5078;42.544;22.966;2023-03-03T04:22:52;93782.88;;;3.70;100.00
10079;BME280;5078;42.544;22.966;2023-03-03T04:25:19;93780.94;;;3.82;100.00
10079;BME280;5078;42.544;22.966;2023-03-03T04:27:47;93782.03;;;3.60;100.00
10079;BME280;5078;42.544;22.966;2023-03-03T04:30:15;93771.81;;;3.47;100.00
10079;BME280;5078;42.544;22.966;2023-03-03T04:32:42;93780.66;;;3.65;100.00
10079;BME280;5078;42.544;22.966;2023-03-03T04:35:09;93777.09;;;3.86;100.00
10079;BME280;5078;42.544;22.966;2023-03-03T04:37:36;93770.34;;;3.93;100.00
10079;BME280;5078;42.544;22.966;2023-03-03T04:40:05;93774.47;;;3.96;100.00
10079;BME280;5078;42.544;22.966;2023-03-03T04:42:33;93783.00;;;3.59;100.00
10079;BME280;5078;42.544;22.966;2023-03-03T04:45:01;93775.28;;;3.57;100.00
10079;BME280;5078;42.544;22.966;2023-03-03T04:47:28;93779.78;;;3.36;100.00
10079;BME280;5078;42.544;22.966;2023-03-03T04:49:55;93785.03;;;3.36;100.00
10079;BME280;5078;42.544;22.966;2023-03-03T04:52:22;93785.53;;;3.20;100.00
10079;BME280;5078;42.544;22.966;2023-03-03T04:54:48;93790.38;;;3.24;100.00
10079;BME280;5078;42.544;22.966;2023-03-03T04:57:15;93778.91;;;3.16;100.00
10079;BME280;5078;42.544;22.966;2023-03-03T04:59:42;93790.78;;;3.20;100.00
10079;BME280;5078;42.544;22.966;2023-03-03T05:02:10;93781.81;;;3.22;100.00
10079;BME280;5078;42.544;22.966;2023-03-03T05:04:37;93787.25;;;3.40;100.00
10079;BME280;5078;42.544;22.966;2023-03-03T05:07:04;93791.41;;;3.53;100.00
10079;BME280;5078;42.544;22.966;2023-03-03T05:09:31;93793.81;;;3.25;100.00
10079;BME280;5078;42.544;22.966;2023-03-03T05:11:57;93783.16;;;3.17;100.00
10079;BME280;5078;42.544;22.966;2023-03-03T05:14:25;93797.63;;;3.11;100.00
10079;BME280;5078;42.544;22.966;2023-03-03T05:16:52;93792.03;;;3.26;100.00
10079;BME280;5078;42.544;22.966;2023-03-03T05:19:21;93792.47;;;3.31;100.00
10079;BME280;5078;42.544;22.966;2023-03-03T05:21:48;93791.88;;;3.17;100.00
10079;BME280;5078;42.544;22.966;2023-03-03T05:24:15;93798.63;;;3.20;100.00
10079;BME280;5078;42.544;22.966;2023-03-03T05:26:42;93803.84;;;3.10;100.00
10079;BME280;5078;42.544;22.966;2023-03-03T05:29:09;93805.44;;;3.32;100.00
10079;BME280;5078;42.544;22.966;2023-03-03T05:31:36;93799.53;;;3.09;100.00
10079;BME280;5078;42.544;22.966;2023-03-03T05:34:02;93801.69;;;2.94;100.00
10079;BME280;5078;42.544;22.966;2023-03-03T05:36:30;93803.97;;;3.09;100.00
10079;BME280;5078;42.544;22.966;2023-03-03T05:38:57;93795.41;;;3.07;100.00
10079;BME280;5078;42.544;22.966;2023-03-03T05:41:24;93802.88;;;3.11;100.00
10079;BME280;5078;42.544;22.966;2023-03-03T05:43:51;93795.56;;;3.05;100.00
10079;BME280;5078;42.544;22.966;2023-03-03T05:46:17;93798.59;;;3.10;100.00
10079;BME280;5078;42.544;22.966;2023-03-03T05:48:44;93808.09;;;3.11;100.00
10079;BME280;5078;42.544;22.966;2023-03-03T05:51:11;93809.75;;;3.02;100.00
10079;BME280;5078;42.544;22.966;2023-03-03T05:53:39;93806.66;;;2.88;100.00
10079;BME280;5078;42.544;22.966;2023-03-03T05:56:06;93810.56;;;3.03;100.00
10079;BME280;5078;42.544;22.966;2023-03-03T05:58:33;93808.34;;;2.98;100.00
10079;BME280;5078;42.544;22.966;2023-03-03T06:01:00;93819.78;;;2.76;100.00
10079;BME280;5078;42.544;22.966;2023-03-03T06:03:26;93783.31;;;2.54;100.00
10079;BME280;5078;42.544;22.966;2023-03-03T06:05:53;93816.69;;;2.83;100.00
10079;BME280;5078;42.544;22.966;2023-03-03T06:08:20;93814.78;;;2.94;100.00
10079;BME280;5078;42.544;22.966;2023-03-03T06:10:48;93816.03;;;2.90;100.00
10079;BME280;5078;42.544;22.966;2023-03-03T06:13:15;93820.66;;;2.87;100.00
10079;BME280;5078;42.544;22.966;2023-03-03T06:15:42;93823.13;;;2.78;100.00
10079;BME280;5078;42.544;22.966;2023-03-03T06:18:09;93831.50;;;3.03;100.00
10079;BME280;5078;42.544;22.966;2023-03-03T06:20:35;93826.47;;;3.21;100.00
10079;BME280;5078;42.544;22.966;2023-03-03T06:23:02;93826.28;;;3.03;100.00
10079;BME280;5078;42.544;22.966;2023-03-03T06:25:29;93823.69;;;3.13;100.00
10079;BME280;5078;42.544;22.966;2023-03-03T06:27:57;93827.75;;;3.27;100.00
10079;BME280;5078;42.544;22.966;2023-03-03T06:30:24;93836.97;;;3.21;100.00
10079;BME280;5078;42.544;22.966;2023-03-03T06:32:52;93826.59;;;3.19;100.00
10079;BME280;5078;42.544;22.966;2023-03-03T06:35:19;93833.25;;;2.93;100.00
10079;BME280;5078;42.544;22.966;2023-03-03T06:37:46;93830.97;;;2.78;100.00
10079;BME280;5078;42.544;22.966;2023-03-03T06:40:15;93847.72;;;2.97;100.00
10079;BME280;5078;42.544;22.966;2023-03-03T06:42:41;93841.75;;;3.16;100.00
10079;BME280;5078;42.544;22.966;2023-03-03T06:45:10;93836.03;;;3.32;100.00
10079;BME280;5078;42.544;22.966;2023-03-03T06:47:37;93840.63;;;3.49;100.00
10079;BME280;5078;42.544;22.966;2023-03-03T06:50:05;93843.81;;;3.43;100.00
10079;BME280;5078;42.544;22.966;2023-03-03T06:52:32;93839.19;;;3.26;100.00
10079;BME280;5078;42.544;22.966;2023-03-03T06:55:01;93840.16;;;3.24;100.00
10079;BME280;5078;42.544;22.966;2023-03-03T06:57:35;93810.38;;;3.26;100.00
10079;BME280;5078;42.544;22.966;2023-03-03T07:00:15;93839.63;;;3.31;100.00
10079;BME280;5078;42.544;22.966;2023-03-03T07:02:42;93841.69;;;3.37;100.00
10079;BME280;5078;42.544;22.966;2023-03-03T07:05:13;93852.53;;;3.53;100.00
10079;BME280;5078;42.544;22.966;2023-03-03T07:07:40;93847.44;;;3.61;100.00
10079;BME280;5078;42.544;22.966;2023-03-03T07:10:15;93844.16;;;3.79;100.00
10079;BME280;5078;42.544;22.966;2023-03-03T07:12:43;93858.88;;;3.60;100.00
10079;BME280;5078;42.544;22.966;2023-03-03T07:15:16;93833.31;;;3.43;100.00
10079;BME280;5078;42.544;22.966;2023-03-03T07:17:45;93850.66;;;3.24;100.00
10079;BME280;5078;42.544;22.966;2023-03-03T07:20:18;93848.25;;;3.52;100.00
10079;BME280;5078;42.544;22.966;2023-03-03T07:22:45;93848.47;;;3.30;100.00
10079;BME280;5078;42.544;22.966;2023-03-03T07:25:19;93854.59;;;3.50;100.00
10079;BME280;5078;42.544;22.966;2023-03-03T07:27:46;93854.16;;;3.44;100.00
10079;BME280;5078;42.544;22.966;2023-03-03T07:30:23;93844.03;;;3.80;100.00
10079;BME280;5078;42.544;22.966;2023-03-03T07:32:51;93832.69;;;3.20;100.00
10079;BME280;5078;42.544;22.966;2023-03-03T07:35:32;93846.91;;;3.67;100.00
10079;BME280;5078;42.544;22.966;2023-03-03T07:38:02;93842.28;;;3.40;100.00
10079;BME280;5078;42.544;22.966;2023-03-03T07:40:34;93844.81;;;3.61;100.00
10079;BME280;5078;42.544;22.966;2023-03-03T07:43:21;93831.97;;;3.58;100.00
10079;BME280;5078;42.544;22.966;2023-03-03T07:45:55;93841.09;;;3.64;100.00
10079;BME280;5078;42.544;22.966;2023-03-03T07:48:25;93840.75;;;3.38;100.00
10079;BME280;5078;42.544;22.966;2023-03-03T07:51:03;93844.16;;;3.29;100.00
10079;BME280;5078;42.544;22.966;2023-03-03T07:53:33;93841.09;;;3.23;100.00
10079;BME280;5078;42.544;22.966;2023-03-03T07:56:10;93849.25;;;3.20;100.00
10079;BME280;5078;42.544;22.966;2023-03-03T07:58:41;93847.28;;;3.53;100.00
10079;BME280;5078;42.544;22.966;2023-03-03T08:01:36;93822.91;;;3.82;100.00
10079;BME280;5078;42.544;22.966;2023-03-03T08:04:16;93830.13;;;3.89;100.00
10079;BME280;5078;42.544;22.966;2023-03-03T08:06:50;93831.19;;;3.97;100.00
10079;BME280;5078;42.544;22.966;2023-03-03T08:09:38;93831.91;;;4.08;100.00
10079;BME280;5078;42.544;22.966;2023-03-03T08:12:26;93829.28;;;4.28;100.00
10079;BME280;5078;42.544;22.966;2023-03-03T08:14:54;93830.78;;;4.01;100.00
10079;BME280;5078;42.544;22.966;2023-03-03T08:17:34;93834.00;;;4.15;100.00
10079;BME280;5078;42.544;22.966;2023-03-03T08:20:10;93821.13;;;4.11;100.00
10079;BME280;5078;42.544;22.966;2023-03-03T08:22:57;93826.66;;;4.18;100.00
10079;BME280;5078;42.544;22.966;2023-03-03T08:25:24;93814.53;;;4.27;100.00
10079;BME280;5078;42.544;22.966;2023-03-03T08:27:50;93823.47;;;4.44;100.00
10079;BME280;5078;42.544;22.966;2023-03-03T08:30:17;93819.31;;;4.51;100.00
10079;BME280;5078;42.544;22.966;2023-03-03T08:32:45;93820.44;;;4.48;100.00
10079;BME280;5078;42.544;22.966;2023-03-03T08:35:12;93816.28;;;4.46;100.00
10079;BME280;5078;42.544;22.966;2023-03-03T08:37:39;93818.78;;;4.57;100.00
10079;BME280;5078;42.544;22.966;2023-03-03T08:40:07;93821.00;;;4.52;100.00
10079;BME280;5078;42.544;22.966;2023-03-03T08:42:34;93811.44;;;4.61;100.00
10079;BME280;5078;42.544;22.966;2023-03-03T08:45:00;93815.03;;;4.69;100.00
10079;BME280;5078;42.544;22.966;2023-03-03T08:47:27;93815.97;;;4.78;100.00
10079;BME280;5078;42.544;22.966;2023-03-03T08:49:55;93821.47;;;4.94;100.00
10079;BME280;5078;42.544;22.966;2023-03-03T08:52:22;93809.31;;;4.74;100.00
10079;BME280;5078;42.544;22.966;2023-03-03T08:54:49;93791.91;;;4.83;100.00
10079;BME280;5078;42.544;22.966;2023-03-03T08:57:15;93822.72;;;4.90;100.00
10079;BME280;5078;42.544;22.966;2023-03-03T08:59:43;93816.53;;;4.72;100.00
10079;BME280;5078;42.544;22.966;2023-03-03T09:02:12;93823.47;;;4.53;100.00
10079;BME280;5078;42.544;22.966;2023-03-03T09:04:38;93817.97;;;4.47;100.00
10079;BME280;5078;42.544;22.966;2023-03-03T09:07:07;93824.72;;;4.49;100.00
10079;BME280;5078;42.544;22.966;2023-03-03T09:09:34;93822.38;;;4.46;100.00
10079;BME280;5078;42.544;22.966;2023-03-03T09:12:18;93827.47;;;4.58;100.00
10079;BME280;5078;42.544;22.966;2023-03-03T09:14:46;93834.78;;;4.54;100.00
10079;BME280;5078;42.544;22.966;2023-03-03T09:17:24;93824.28;;;4.54;100.00
10079;BME280;5078;42.544;22.966;2023-03-03T09:19:52;93827.06;;;4.23;100.00
10079;BME280;5078;42.544;22.966;2023-03-03T09:22:23;93820.31;;;4.11;100.00
10079;BME280;5078;42.544;22.966;2023-03-03T09:24:53;93820.44;;;4.29;100.00
10079;BME280;5078;42.544;22.966;2023-03-03T09:27:26;93820.00;;;4.53;100.00
10079;BME280;5078;42.544;22.966;2023-03-03T09:29:54;93818.19;;;4.73;100.00
10079;BME280;5078;42.544;22.966;2023-03-03T09:32:29;93822.97;;;4.97;100.00
10079;BME280;5078;42.544;22.966;2023-03-03T09:34:57;93817.88;;;4.86;100.00
10079;BME280;5078;42.544;22.966;2023-03-03T09:37:29;93832.06;;;5.03;100.00
10079;BME280;5078;42.544;22.966;2023-03-03T09:40:00;93827.16;;;4.80;100.00
10079;BME280;5078;42.544;22.966;2023-03-03T09:42:48;93826.47;;;4.78;100.00
10079;BME280;5078;42.544;22.966;2023-03-03T09:45:33;93827.97;;;4.90;100.00
10079;BME280;5078;42.544;22.966;2023-03-03T09:48:16;93831.00;;;4.95;100.00
10079;BME280;5078;42.544;22.966;2023-03-03T09:50:59;93827.91;;;5.10;100.00
10079;BME280;5078;42.544;22.966;2023-03-03T09:53:41;93825.91;;;4.84;100.00
10079;BME280;5078;42.544;22.966;2023-03-03T09:56:15;93829.56;;;5.11;100.00
10079;BME280;5078;42.544;22.966;2023-03-03T09:59:00;93827.84;;;5.29;100.00
10079;BME280;5078;42.544;22.966;2023-03-03T10:01:50;93832.44;;;5.17;100.00
10079;BME280;5078;42.544;22.966;2023-03-03T10:04:43;93830.59;;;4.81;100.00
10079;BME280;5078;42.544;22.966;2023-03-03T10:07:26;93831.59;;;4.80;100.00
10079;BME280;5078;42.544;22.966;2023-03-03T10:10:20;93829.06;;;4.97;100.00
10079;BME280;5078;42.544;22.966;2023-03-03T10:13:01;93828.44;;;5.13;100.00
10079;BME280;5078;42.544;22.966;2023-03-03T10:15:40;93824.75;;;4.96;100.00
10079;BME280;5078;42.544;22.966;2023-03-03T10:18:17;93817.50;;;5.18;100.00
10079;BME280;5078;42.544;22.966;2023-03-03T10:20:58;93821.13;;;5.17;100.00
10079;BME280;5078;42.544;22.966;2023-03-03T10:23:41;93819.25;;;4.90;100.00
10079;BME280;5078;42.544;22.966;2023-03-03T10:26:19;93813.09;;;5.09;100.00
10079;BME280;5078;42.544;22.966;2023-03-03T10:28:59;93813.41;;;4.96;100.00
10079;BME280;5078;42.544;22.966;2023-03-03T10:31:54;93819.88;;;4.54;100.00
10079;BME280;5078;42.544;22.966;2023-03-03T10:34:45;93818.91;;;4.56;100.00
10079;BME280;5078;42.544;22.966;2023-03-03T10:37:20;93817.13;;;4.46;100.00
10079;BME280;5078;42.544;22.966;2023-03-03T10:40:03;93809.00;;;4.40;100.00
10079;BME280;5078;42.544;22.966;2023-03-03T10:42:52;93806.03;;;4.72;100.00
10079;BME280;5078;42.544;22.966;2023-03-03T10:45:40;93810.19;;;4.65;100.00
10079;BME280;5078;42.544;22.966;2023-03-03T10:48:35;93816.00;;;4.59;100.00
10079;BME280;5078;42.544;22.966;2023-03-03T10:51:11;93812.41;;;4.69;100.00
10079;BME280;5078;42.544;22.966;2023-03-03T10:53:50;93792.22;;;4.70;100.00
10079;BME280;5078;42.544;22.966;2023-03-03T10:56:32;93799.31;;;5.07;100.00
10079;BME280;5078;42.544;22.966;2023-03-03T10:59:15;93792.69;;;5.30;100.00
10079;BME280;5078;42.544;22.966;2023-03-03T11:01:52;93804.13;;;5.39;100.00
10079;BME280;5078;42.544;22.966;2023-03-03T11:04:42;93791.09;;;5.47;100.00
10079;BME280;5078;42.544;22.966;2023-03-03T11:07:18;93794.44;;;5.39;100.00
10079;BME280;5078;42.544;22.966;2023-03-03T11:09:59;93790.34;;;5.55;100.00
10079;BME280;5078;42.544;22.966;2023-03-03T11:12:32;93793.75;;;5.65;100.00
10079;BME280;5078;42.544;22.966;2023-03-03T11:15:23;93785.91;;;5.55;100.00
10079;BME280;5078;42.544;22.966;2023-03-03T11:18:04;93781.34;;;5.57;100.00
10079;BME280;5078;42.544;22.966;2023-03-03T11:20:37;93785.81;;;5.75;100.00
10079;BME280;5078;42.544;22.966;2023-03-03T11:26:07;93779.19;;;5.43;100.00
10079;BME280;5078;42.544;22.966;2023-03-03T11:28:46;93789.44;;;5.64;100.00
10079;BME280;5078;42.544;22.966;2023-03-03T11:31:29;93780.06;;;5.61;100.00
10079;BME280;5078;42.544;22.966;2023-03-03T11:34:00;93781.28;;;5.67;100.00
10079;BME280;5078;42.544;22.966;2023-03-03T11:36:32;93779.09;;;5.62;100.00
10079;BME280;5078;42.544;22.966;2023-03-03T11:39:04;93768.03;;;5.04;100.00
10079;BME280;5078;42.544;22.966;2023-03-03T11:41:36;93760.53;;;5.36;100.00
10079;BME280;5078;42.544;22.966;2023-03-03T11:44:12;93770.03;;;5.29;100.00
10079;BME280;5078;42.544;22.966;2023-03-03T11:46:47;93775.59;;;5.16;100.00
10079;BME280;5078;42.544;22.966;2023-03-03T11:49:20;93773.06;;;5.25;100.00
10079;BME280;5078;42.544;22.966;2023-03-03T11:51:54;93770.56;;;5.51;100.00
10079;BME280;5078;42.544;22.966;2023-03-03T11:54:29;93765.97;;;5.80;100.00
10079;BME280;5078;42.544;22.966;2023-03-03T11:57:11;93765.44;;;5.77;100.00
10079;BME280;5078;42.544;22.966;2023-03-03T11:59:55;93762.06;;;5.84;100.00
10079;BME280;5078;42.544;22.966;2023-03-03T12:02:45;93757.50;;;5.59;100.00
10079;BME280;5078;42.544;22.966;2023-03-03T12:05:26;93752.84;;;5.53;100.00
10079;BME280;5078;42.544;22.966;2023-03-03T12:08:04;93761.38;;;5.65;100.00
10079;BME280;5078;42.544;22.966;2023-03-03T12:10:36;93759.94;;;5.70;100.00
10079;BME280;5078;42.544;22.966;2023-03-03T12:13:13;93760.03;;;5.96;100.00
10079;BME280;5078;42.544;22.966;2023-03-03T12:15:47;93756.97;;;6.01;100.00
10079;BME280;5078;42.544;22.966;2023-03-03T12:18:38;93764.56;;;6.04;100.00
10079;BME280;5078;42.544;22.966;2023-03-03T12:21:18;93753.81;;;6.15;100.00
10079;BME280;5078;42.544;22.966;2023-03-03T12:23:59;93753.47;;;6.36;100.00
10079;BME280;5078;42.544;22.966;2023-03-03T12:26:32;93757.88;;;6.28;100.00
10079;BME280;5078;42.544;22.966;2023-03-03T12:29:05;93741.38;;;6.25;100.00
10079;BME280;5078;42.544;22.966;2023-03-03T12:31:41;93752.72;;;6.44;100.00
10079;BME280;5078;42.544;22.966;2023-03-03T12:34:17;93747.66;;;6.24;100.00
10079;BME280;5078;42.544;22.966;2023-03-03T12:37:12;93749.16;;;6.09;100.00
10079;BME280;5078;42.544;22.966;2023-03-03T12:39:52;93749.81;;;6.29;100.00
10079;BME280;5078;42.544;22.966;2023-03-03T12:42:29;93750.75;;;6.46;100.00
10079;BME280;5078;42.544;22.966;2023-03-03T12:45:08;93748.13;;;6.46;100.00
10079;BME280;5078;42.544;22.966;2023-03-03T12:47:40;93734.44;;;6.68;100.00
10079;BME280;5078;42.544;22.966;2023-03-03T12:50:32;93738.94;;;6.50;100.00
10079;BME280;5078;42.544;22.966;2023-03-03T12:53:10;93736.00;;;6.09;100.00
10079;BME280;5078;42.544;22.966;2023-03-03T12:55:48;93745.06;;;6.33;100.00
10079;BME280;5078;42.544;22.966;2023-03-03T12:58:35;93740.72;;;6.23;100.00
10079;BME280;5078;42.544;22.966;2023-03-03T13:01:14;93730.47;;;6.38;100.00
10079;BME280;5078;42.544;22.966;2023-03-03T13:03:48;93740.88;;;6.04;100.00
10079;BME280;5078;42.544;22.966;2023-03-03T13:06:24;93733.56;;;6.16;100.00
10079;BME280;5078;42.544;22.966;2023-03-03T13:09:11;93737.03;;;6.34;100.00
10079;BME280;5078;42.544;22.966;2023-03-03T13:11:51;93741.56;;;6.50;100.00
10079;BME280;5078;42.544;22.966;2023-03-03T13:14:26;93739.41;;;6.45;100.00
10079;BME280;5078;42.544;22.966;2023-03-03T13:17:02;93734.00;;;6.47;100.00
10079;BME280;5078;42.544;22.966;2023-03-03T13:19:36;93726.84;;;6.65;100.00
10079;BME280;5078;42.544;22.966;2023-03-03T13:22:09;93729.72;;;6.72;100.00
10079;BME280;5078;42.544;22.966;2023-03-03T13:24:44;93734.34;;;6.52;100.00
10079;BME280;5078;42.544;22.966;2023-03-03T13:27:19;93726.50;;;6.60;100.00
10079;BME280;5078;42.544;22.966;2023-03-03T13:29:55;93724.63;;;6.53;100.00